createdAt,value
2018-11-29T00:04:08.429Z,43.10
2018-11-29T00:17:31.276Z,43.10
2018-11-29T00:30:54.086Z,43.20
2018-11-29T00:44:16.864Z,43.40
2018-11-29T00:57:39.697Z,43.40
2018-11-29T01:11:02.502Z,43.40
2018-11-29T01:24:25.305Z,43.60
2018-11-29T01:37:48.131Z,43.50
2018-11-29T01:51:11.024Z,43.50
2018-11-29T02:17:35.453Z,43.80
2018-11-29T02:30:42.598Z,43.80
2018-11-29T02:43:49.803Z,43.90
2018-11-29T02:56:56.950Z,43.90
2018-11-29T03:10:04.078Z,44.10
2018-11-29T03:23:11.199Z,44.00
2018-11-29T03:49:36.858Z,43.80
2018-11-29T04:02:44.056Z,43.80
2018-11-29T04:15:51.209Z,43.90
2018-11-29T04:28:58.340Z,44.40
2018-11-29T04:42:05.451Z,43.90
2018-11-29T04:55:12.598Z,44.00
2018-11-29T05:08:36.582Z,44.40
2018-11-29T05:35:01.080Z,43.90
2018-11-29T05:48:08.290Z,44.20
2018-11-29T06:27:26.843Z,44.30
2018-11-29T06:40:34.010Z,44.40
2018-11-29T06:53:41.190Z,44.50
2018-11-29T07:19:52.524Z,44.60
2018-11-29T07:32:59.783Z,44.80
2018-11-29T07:46:06.957Z,44.70
2018-11-29T07:59:14.134Z,44.90
2018-11-29T08:12:21.258Z,44.80
2018-11-29T08:25:28.402Z,39.90
2018-11-29T08:51:53.932Z,41.30
2018-11-29T09:05:01.054Z,42.00
2018-11-29T09:18:08.245Z,42.40
2018-11-29T09:31:15.419Z,42.60
2018-11-29T09:57:26.133Z,43.20
2018-11-29T10:10:33.339Z,43.30
2018-11-29T10:23:40.573Z,43.40
2018-11-29T10:36:47.772Z,43.40
2018-11-29T10:49:55.044Z,43.10
2018-11-29T11:03:02.213Z,44.30
2018-11-29T11:16:25.814Z,45.00
2018-11-29T11:29:48.735Z,45.50
2018-11-29T11:56:13.262Z,46.30
2018-11-29T12:22:26.138Z,46.10
2018-11-29T12:35:33.341Z,45.90
2018-11-29T12:48:40.499Z,45.60
2018-11-29T13:01:47.724Z,43.90
2018-11-29T13:14:54.849Z,43.60
2018-11-29T13:28:02.040Z,43.50
2018-11-29T13:41:25.768Z,43.30
2018-11-29T13:54:48.575Z,44.50
2018-11-29T14:08:11.375Z,43.80
2018-11-29T14:21:34.168Z,44.20
2018-11-29T14:34:57.008Z,43.80
2018-11-29T14:48:19.827Z,43.70
2018-11-29T15:01:42.658Z,44.40
2018-11-29T15:15:05.501Z,44.70
2018-11-29T15:28:28.262Z,45.50
2018-11-29T15:41:51.249Z,45.90
2018-11-29T15:55:13.878Z,45.50
2018-11-29T16:08:36.689Z,44.80
2018-11-29T16:21:59.524Z,45.30
2018-11-29T16:35:22.380Z,44.90
2018-11-29T16:48:45.215Z,43.70
2018-11-29T17:02:07.985Z,43.60
2018-11-29T17:15:30.935Z,43.50
2018-11-29T17:28:53.631Z,43.70
2018-11-29T17:42:16.454Z,43.60
2018-11-29T17:55:39.233Z,43.70
2018-11-29T18:09:02.482Z,43.80
2018-11-29T18:22:25.336Z,43.90
2018-11-29T18:35:47.837Z,43.80
2018-11-29T18:49:10.496Z,43.80
2018-11-29T19:02:33.324Z,43.80
2018-11-29T19:28:57.792Z,39.90
2018-11-29T19:42:05.138Z,39.60
2018-11-29T19:55:12.300Z,39.80
2018-11-29T20:08:19.509Z,40.60
2018-11-29T20:21:26.765Z,41.10
2018-11-29T20:34:34.462Z,41.60
2018-11-29T20:47:57.703Z,41.80
2018-11-29T21:01:20.404Z,42.20
2018-11-29T21:14:43.289Z,42.20
2018-11-29T21:41:07.687Z,42.20
2018-11-29T21:54:14.895Z,42.30
2018-11-29T22:07:22.054Z,42.40
2018-11-29T22:20:29.212Z,42.40
2018-11-29T22:33:36.367Z,42.50
2018-11-29T22:46:43.569Z,42.60
2018-11-29T23:00:07.411Z,42.70
2018-11-29T23:26:31.898Z,43.20
2018-11-29T23:39:39.067Z,43.10
2018-11-29T23:52:46.238Z,44.00
